Accueil
METAR-TAF:

METAR-TAF

Aéroports :

Aéroport de Zadar

Zadar, Croatie

latitude: 44-06N, longitude: 015-21E, altitude: 82 m

Observation

Le bulletin a été fait il y a 36 minutes, à 00:00 UTC
Vent 2 kt de ouest/nord-ouest
Température 21°C
Humidité 83%
Pression 1011 hPa
Visibilité 10 km ou plus
pas de nuages en-dessous de 1500 mètres et pas de cumulonimbus.

METAR: LDZD 160000Z 30002KT CAVOK 21/18 Q1011

Heure: 02:36 (00:36 UTC)

Prévision

Le bulletin a été fait il y a 1 heure et 11 minutes, à 23:25 UTC
Prévision valable du 16 à 00 UTC au 17 à 00 UTC
Vent 2 kt de direction variable
Visibilité 10 km ou plus
pas de nuages en-dessous de 1500 mètres et pas de cumulonimbus.
Evoluant progressivement
du 16 à 10 UTC au 16 à 12 UTC
Vent 10 kt de ouest/nord-ouest
Evoluant progressivement
du 16 à 16 UTC au 16 à 18 UTC
Vent 5 kt de nord-ouest

TAF: LDZD 152325Z 1600/1700 VRB02KT CAVOK TX35/1613Z TN20/1603Z BECMG 1610/1612 30010KT BECMG 1616/1618 32005KT

Observations et prévisions météorologiques de plus de 4000 aéroports (messages METAR et TAF).

Les stations disponibles sont représentées par des disques jaunes et rouges sur la carte.

Passer la souris dessus pour voir le nom de la station.

Cliquer dessus pour voir les observations et prévisions météorologiques.

Pour changer de carte: cliquez sur les boutons verts avec une croix noire pour zoomer, sur le bouton vert avec un tiret pour effectuer un zoom arrière, ou sur les flèches vertes pour les cartes adjacentes.


METAR-TAF: